• Join FlightAware (Why Join?)
  • Login
  • US Flag 
01:29AM EDT


 

Airport Tracker/Info


-or-


 

Live Flight TrackerFlight Track Log ✈ SWA1319 ✈ 22-Apr-2013 ✈ KOAK - KLAX

Flight Track Log - Related Links

Times and Time Zones

All times are in EDT time to prevent confusion due to time zone crossing. See the SWA1319 flight status page for this flight to view local times or setup timezone preferences in your user account.

Time Position Orientation Groundspeed Altitude Reporting Facility
EDT Latitude Longitude Course Direction KTS MPH feet Rate Location/Type
01:46AM 37.7167 -122.2500 322° Northwest 143 165 1,000  Level Northern Cal TRACON
01:47AM 37.7500 -122.2833 322° Northwest 195 224 3,400 2,280 Climbing Northern Cal TRACON
01:48AM 37.7467 -122.2883 230° Southwest 192 221 3,700 4,320 Climbing Oakland Center
01:49AM 37.7408 -122.3653 265° West 224 258 8,900 4,800 Climbing Oakland Center
01:50AM 37.6872 -122.4319 225° Southwest 264 304 13,500 4,560 Climbing Oakland Center
01:51AM 37.6294 -122.4922 220° Southwest 268 308 18,100 2,700 Climbing Oakland Center
01:52AM 37.5583 -122.4314 146° Southeast 330 380 19,000 420 Climbing Oakland Center
01:53AM 37.4831 -122.3308 133° Southeast 393 452 19,000 420 Level Oakland Center
01:54AM 37.4044 -122.2250 133° Southeast 411 473 19,900 2,280 Climbing Oakland Center
01:55AM 37.3286 -122.1256 134° Southeast 398 458 23,700 3,420 Climbing Oakland Center
01:56AM 37.2494 -122.0222 134° Southeast 408 470 26,800 2,820 Climbing Oakland Center
01:57AM 37.1661 -121.9114 133° Southeast 432 497 29,400 2,460 Climbing Oakland Center
01:58AM 37.0797 -121.7961 133° Southeast 450 518 31,800 2,520 Climbing Oakland Center
01:59AM 36.9886 -121.6872 136° Southeast 452 520 34,600 2,520 Climbing Oakland Center
02:00AM 36.8983 -121.5814 137° Southeast 447 514 36,900 1,980 Climbing Oakland Center
02:01AM 36.8011 -121.4594 135° Southeast 452 520 38,600 1,440 Climbing Oakland Center
02:02AM 36.7092 -121.3472 136° Southeast 461 531 39,900 1,140 Climbing Oakland Center
02:03AM 36.6153 -121.2342 136° Southeast 469 540 40,900 540 Climbing Oakland Center
02:04AM 36.5192 -121.1172 136° Southeast 480 552 41,000  Climbing Oakland Center
02:05AM 36.4217 -121.0003 136° Southeast 485 558 41,000  Level Oakland Center
02:06AM 36.3244 -120.8867 137° Southeast 481 554 41,000  Level Oakland Center
02:07AM 36.2294 -120.7722 136° Southeast 479 551 41,000  Level Oakland Center
02:08AM 36.1325 -120.6589 137° Southeast 477 549 41,000  Level Oakland Center
02:09AM 36.0364 -120.5436 136° Southeast 480 552 41,000  Level Oakland Center
02:10AM 35.9389 -120.4297 137° Southeast 480 552 41,000  Level Oakland Center
02:11AM 35.8403 -120.3172 137° Southeast 480 552 41,000  Level Oakland Center
02:12AM 35.7439 -120.2025 136° Southeast 478 550 41,000  Level Oakland Center
02:13AM 35.6450 -120.0906 137° Southeast 478 550 41,000  Level Oakland Center
02:14AM 35.5392 -119.9892 142° Southeast 476 548 41,000  Level Oakland Center
02:15AM 35.4328 -119.8889 142° Southeast 476 548 41,000  Level Oakland Center
02:16AM 35.3281 -119.7892 142° Southeast 477 549 41,000 -120 Level Los Angeles Center
02:17AM 35.2236 -119.6897 142° Southeast 475 547 40,800 -1,500 Descending Los Angeles Center
02:18AM 35.1189 -119.5914 142° Southeast 475 547 38,000 -2,940 Descending Los Angeles Center
02:19AM 35.0161 -119.4947 142° Southeast 469 540 34,900 -3,180 Descending Los Angeles Center
02:20AM 34.9108 -119.3972 143° Southeast 473 544 31,600 -3,060 Descending Los Angeles Center
02:21AM 34.8086 -119.3008 142° Southeast 470 541 28,800 -2,700 Descending Los Angeles Center
02:22AM 34.7111 -119.2100 143° Southeast 457 526 26,200 -2,520 Descending Los Angeles Center
02:23AM 34.6178 -119.1233 143° Southeast 439 505 23,700 -2,700 Descending Los Angeles Center
02:24AM 34.5081 -119.0214 143° Southeast 405 466 20,800 -2,580 Descending Los Angeles Center
02:25AM 34.4219 -118.9417 143° Southeast 390 449 18,500 -2,340 Descending Los Angeles Center
02:26AM 34.3356 -118.8731 147° Southeast 371 427 16,100 -2,460 Descending Los Angeles Center
02:27AM 34.2389 -118.8383 163° South 362 417 13,600 -2,100 Descending Los Angeles Center
02:28AM 34.1447 -118.8036 163° South 354 407 11,900 -1,380 Descending Los Angeles Center
02:29AM 34.0539 -118.7633 160° South 349 402 10,800 -960 Descending Los Angeles Center
02:30AM 34.0303 -118.6664 106° East 310 357 10,000 -1,380 Descending Los Angeles Center
02:31AM 34.0192 -118.5547 97° East 309 356 8,100 -1,500 Descending Los Angeles Center
02:32AM 34.0106 -118.4628 96° East 301 346 7,000 -1,260 Descending Los Angeles Center
02:33AM 34.0239 -118.3703 80° East 288 331 5,600 -1,020 Descending Los Angeles Center
02:34AM 34.0344 -118.2811 82° East 274 315 5,000 -780 Descending Los Angeles Center
02:35AM 34.0419 -118.2100 83° East 227 261 4,100 -1,020 Descending Los Angeles Center
02:36AM 33.9931 -118.2033 174° South 203 234 3,000 -840 Descending Los Angeles Center
02:37AM 33.9661 -118.2525 237° Southwest 180 207 2,500 -660 Descending Los Angeles Center
02:38AM 33.9606 -118.3042 263° West 166 191 1,700 -780 Descending Los Angeles Center
02:39AM 33.9561 -118.3469 263° West 146 168 1,000 -660 Descending Los Angeles Center
02:40AM 33.9525 -118.3872 264° West 131 151 400 -600 Descending Los Angeles Center
02:42AM 33.9333 -118.4000 228° Southwest  Level FlightAware Approximate
02:49AM 33.9425 -118.4081 228° Southwest  Level Estimated